Here is the Quick Look data you requested

The Data originates at the National Weather Service, and is made available here by the UAlbany Department of Atmospheric and Environmental Sciences

Surface Observations

KCVG 222252Z 16013KT 10SM BKN060 OVC210 04/M05 A3018 RMK AO2 SLP228 T00391050=
KCVG 222352Z 17015KT 10SM SCT080 OVC190 04/M04 A3016 RMK AO2 SLP222 4/003
 T00441044 10044 20011 58013=
KCVG 230052Z 19014G23KT 10SM FEW040 BKN080 BKN160 OVC220 06/M05 A3016 RMK AO2
 SLP218 T00561050=
KCVG 230152Z 18017KT 10SM SCT065 OVC080 06/M03 A3014 RMK AO2 SLP212 T00611028=
KCVG 230252Z 17017KT 10SM FEW050 BKN070 OVC160 06/M01 A3010 RMK AO2 SLP199
 T00561011 58021=
KCVG 230352Z 18015KT 10SM FEW060 OVC180 06/M01 A3007 RMK AO2 SLP188 T00611011=
KCVG 230452Z 18015G22KT 10SM OVC075 06/M01 A3004 RMK AO2 SLP178 T00611011
 400611100=
KCVG 230552Z 18012G20KT 10SM OVC070 06/M01 A3003 RMK AO2 SLP170 4/003 T00611006
 10067 20044 56024=
KCVG 230652Z 18013KT 10SM OVC065 07/01 A3000 RMK AO2 SLP162 T00670006=
KCVG 230752Z 18010KT 10SM -RA OVC065 06/02 A2999 RMK AO2 RAB49 SLP157 P0000
 T00610017=
KCVG 230852Z 17014KT 10SM -RA SCT060 OVC080 06/02 A2994 RMK AO2 SLP142 P0001
 60001 T00610022 58027=
KCVG 230952Z 17015KT 10SM -RA FEW039 BKN060 OVC080 06/03 A2991 RMK AO2 SLP129
 P0002 T00610033=
KCVG 231052Z 17013KT 10SM -RA SCT038 OVC055 07/04 A2987 RMK AO2 SLP117 P0000
 T00670039=
KCVG 231152Z 17015KT 6SM -RA BR SCT034 BKN070 OVC080 07/04 A2985 RMK AO2 SLP110
 4/001 P0004 60007 70007 T00670044 10067 20056 56030=
KCVG 231252Z 18016KT 6SM -RA BR FEW034 BKN055 OVC080 08/06 A2984 RMK AO2 SLP104
 P0007 T00780056=
KCVG 231352Z 19013KT 5SM -RA BR FEW035 BKN047 OVC070 08/07 A2984 RMK AO2 SLP105
 P0009 T00830067=
KCVG 231452Z 18010KT 4SM -RA BR BKN030 OVC040 09/07 A2983 RMK AO2 SLP102 P0013
 60029 T00890072 56006 $=
KCVG 231514Z 19011G21KT 6SM -RA BR BKN029 BKN035 OVC046 09/07 A2983 RMK AO2
 P0002 T00940072 $=
KCVG 231541Z 19016G22KT 6SM -RA BR SCT026 BKN045 OVC070 09/08 A2983 RMK AO2
 P0005 T00940078=
KCVG 231552Z 18019G24KT 6SM -RA BR SCT020 BKN055 OVC070 10/08 A2982 RMK AO2
 SLP097 P0007 T01000078=
KCVG 231611Z 18017G23KT 7SM -RA BKN015 BKN025 OVC070 10/08 A2981 RMK AO2 P0001
 T01000083=
KCVG 231630Z 19019G26KT 5SM -RA BR BKN013 OVC049 10/08 A2981 RMK AO2 PK WND
 17027/1612 P0002 T01000083=
KCVG 231652Z 19015G23KT 4SM -RA BR BKN011 OVC017 10/08 A2980 RMK AO2 PK WND
 17027/1612 SLP091 P0006 T01000083=
KCVG 231707Z 19014G21KT 2SM -RA BR OVC011 11/09 A2980 RMK AO2 SFC VIS 3 P0001
 T01060089=
KCVG 231711Z 20014G21KT 2SM RA BR BKN009 OVC014 10/09 A2980 RMK AO2 SFC VIS 2
 1/2 P0003 T01000089=
KCVG 231752Z 20013KT 3SM RA BR SCT008 OVC014 11/09 A2978 RMK AO2 SFC VIS 4
 SLP083 P0010 60052 T01060089 10106 20067 58018=
KCVG 231826Z 19018G25KT 7SM -RA SCT009 BKN016 OVC075 11/09 A2973 RMK AO2 PK WND
 20028/1815 PRESFR P0003 T01060089=
KCVG 231852Z 20015G23KT 8SM SCT011 OVC017 11/09 A2973 RMK AO2 PK WND 18032/1835
 RAE52 SLP066 P0004 T01110089=
KCVG 231952Z 20017G25KT 6SM RA BR SCT015 BKN021 OVC075 11/09 A2971 RMK AO2 PK
 WND 19026/1941 RAB04 SLP058 P0001 T01110089=
KCVG 232007Z 20015G26KT 7SM -RA FEW014 SCT020 OVC070 11/09 A2970 RMK AO2 PK WND
 20026/2005 P0002 T01110089=
KCVG 232052Z 19015G22KT 5SM RA BR FEW015 FEW026 OVC070 11/09 A2967 RMK AO2 PK
 WND 20026/2005 PRESFR SLP045 P0007 60012 T01060089 56037=
KCVG 232152Z 20009G19KT 10SM -RA FEW014 BKN070 OVC090 11/09 A2966 RMK AO2
 SLP042 FEW V SCT P0004 T01060089=
KCVG 232214Z 21009KT 9SM -RA BKN013 BKN034 OVC065 11/09 A2970 RMK AO2 P0001
 T01060089=
KCVG 232232Z 21010KT 7SM -RA FEW009 OVC014 11/09 A2969 RMK AO2 CIG 011V017
 P0002 T01060089=
KCVG 232248Z 22010KT 7SM RA FEW009 SCT015 OVC025 11/09 A2969 RMK AO2 P0003=
KCVG 232256Z 29014G23KT 4SM RA BR FEW006 BKN015 OVC029 07/06 A2971 RMK AO2
 WSHFT 2253 FROPA P0000 T00720061=
KCVG 232302Z 30013G23KT 6SM -RA BR SCT006 BKN013 OVC030 06/04 A2970 RMK AO2
 WSHFT 2253 FROPA P0002 T00610044=